sensor_id;sensor_type;location;lat;lon;timestamp;P1;P2;P0
13030;PMS7003;6582;54.644;9.760;2022-11-15T00:00:01;139.8;136.3;
13030;PMS7003;6582;54.644;9.760;2022-11-15T00:05:02;141.1;138.6;
13030;PMS7003;6582;54.644;9.760;2022-11-15T00:10:01;138.2;135.0;
13030;PMS7003;6582;54.644;9.760;2022-11-15T00:15:01;128.7;125.6;
13030;PMS7003;6582;54.644;9.760;2022-11-15T00:20:02;119.1;115.8;
13030;PMS7003;6582;54.644;9.760;2022-11-15T00:25:06;109.9;106.6;
13030;PMS7003;6582;54.644;9.760;2022-11-15T00:30:01;109.8;106.7;
13030;PMS7003;6582;54.644;9.760;2022-11-15T00:35:01;107.2;103.6;
13030;PMS7003;6582;54.644;9.760;2022-11-15T00:40:01;107.6;104.4;
13030;PMS7003;6582;54.644;9.760;2022-11-15T00:45:01;108.3;105.0;
13030;PMS7003;6582;54.644;9.760;2022-11-15T00:50:06;115.7;112.1;
13030;PMS7003;6582;54.644;9.760;2022-11-15T00:55:06;119.6;115.8;
13030;PMS7003;6582;54.644;9.760;2022-11-15T01:00:02;122.3;118.7;
13030;PMS7003;6582;54.644;9.760;2022-11-15T01:05:04;124.4;119.5;
13030;PMS7003;6582;54.644;9.760;2022-11-15T01:10:06;125.6;121.6;
13030;PMS7003;6582;54.644;9.760;2022-11-15T01:15:06;119.9;116.3;
13030;PMS7003;6582;54.644;9.760;2022-11-15T01:20:06;115.9;112.5;
13030;PMS7003;6582;54.644;9.760;2022-11-15T01:25:01;113.2;109.6;
13030;PMS7003;6582;54.644;9.760;2022-11-15T01:30:02;107.8;104.2;
13030;PMS7003;6582;54.644;9.760;2022-11-15T01:35:02;114.4;109.7;
13030;PMS7003;6582;54.644;9.760;2022-11-15T01:40:01;110.4;105.4;
13030;PMS7003;6582;54.644;9.760;2022-11-15T01:45:01;111.2;106.4;
13030;PMS7003;6582;54.644;9.760;2022-11-15T01:50:04;113.0;108.6;
13030;PMS7003;6582;54.644;9.760;2022-11-15T01:55:08;114.5;109.9;
13030;PMS7003;6582;54.644;9.760;2022-11-15T02:00:03;107.8;103.5;
13030;PMS7003;6582;54.644;9.760;2022-11-15T02:05:07;111.4;107.4;
13030;PMS7003;6582;54.644;9.760;2022-11-15T02:10:04;116.5;112.5;
13030;PMS7003;6582;54.644;9.760;2022-11-15T02:15:02;120.1;116.9;
13030;PMS7003;6582;54.644;9.760;2022-11-15T02:20:14;120.8;118.4;
13030;PMS7003;6582;54.644;9.760;2022-11-15T02:35:04;104.6;97.6;
13030;PMS7003;6582;54.644;9.760;2022-11-15T02:40:10;105.3;99.3;
13030;PMS7003;6582;54.644;9.760;2022-11-15T02:45:03;106.4;101.6;
13030;PMS7003;6582;54.644;9.760;2022-11-15T02:50:05;105.4;100.3;
13030;PMS7003;6582;54.644;9.760;2022-11-15T02:55:02;105.6;100.0;
13030;PMS7003;6582;54.644;9.760;2022-11-15T03:00:06;105.2;100.7;
13030;PMS7003;6582;54.644;9.760;2022-11-15T03:05:04;104.6;99.9;
13030;PMS7003;6582;54.644;9.760;2022-11-15T03:10:05;104.1;99.2;
13030;PMS7003;6582;54.644;9.760;2022-11-15T03:15:05;108.9;104.7;
13030;PMS7003;6582;54.644;9.760;2022-11-15T03:20:04;108.1;104.9;
13030;PMS7003;6582;54.644;9.760;2022-11-15T03:25:02;109.0;105.1;
13030;PMS7003;6582;54.644;9.760;2022-11-15T03:30:07;112.0;108.4;
13030;PMS7003;6582;54.644;9.760;2022-11-15T03:40:02;109.4;106.0;
13030;PMS7003;6582;54.644;9.760;2022-11-15T03:45:03;110.8;106.4;
13030;PMS7003;6582;54.644;9.760;2022-11-15T03:50:03;112.1;107.6;
13030;PMS7003;6582;54.644;9.760;2022-11-15T03:55:03;113.0;108.4;
13030;PMS7003;6582;54.644;9.760;2022-11-15T04:00:02;111.1;106.0;
13030;PMS7003;6582;54.644;9.760;2022-11-15T04:05:02;108.1;101.5;
13030;PMS7003;6582;54.644;9.760;2022-11-15T04:15:07;116.4;109.5;
13030;PMS7003;6582;54.644;9.760;2022-11-15T04:20:04;118.5;111.9;
13030;PMS7003;6582;54.644;9.760;2022-11-15T04:25:01;121.8;115.4;
13030;PMS7003;6582;54.644;9.760;2022-11-15T04:30:02;134.3;127.9;
13030;PMS7003;6582;54.644;9.760;2022-11-15T04:35:02;143.8;138.0;
13030;PMS7003;6582;54.644;9.760;2022-11-15T04:45:01;147.0;141.4;
13030;PMS7003;6582;54.644;9.760;2022-11-15T04:50:03;153.6;148.1;
13030;PMS7003;6582;54.644;9.760;2022-11-15T04:55:09;158.5;152.2;
13030;PMS7003;6582;54.644;9.760;2022-11-15T05:05:02;164.8;158.5;
13030;PMS7003;6582;54.644;9.760;2022-11-15T05:10:02;174.2;168.0;
13030;PMS7003;6582;54.644;9.760;2022-11-15T05:15:02;177.0;170.3;
13030;PMS7003;6582;54.644;9.760;2022-11-15T05:20:01;178.6;171.0;
13030;PMS7003;6582;54.644;9.760;2022-11-15T05:25:02;180.2;171.9;
13030;PMS7003;6582;54.644;9.760;2022-11-15T05:30:01;174.8;165.8;
13030;PMS7003;6582;54.644;9.760;2022-11-15T05:35:01;170.8;161.7;
13030;PMS7003;6582;54.644;9.760;2022-11-15T05:40:01;169.8;160.7;
13030;PMS7003;6582;54.644;9.760;2022-11-15T05:45:02;172.1;162.7;
13030;PMS7003;6582;54.644;9.760;2022-11-15T05:50:02;170.5;161.4;
13030;PMS7003;6582;54.644;9.760;2022-11-15T05:55:02;168.4;159.8;
13030;PMS7003;6582;54.644;9.760;2022-11-15T06:00:03;162.6;153.8;
13030;PMS7003;6582;54.644;9.760;2022-11-15T06:05:07;160.8;152.6;
13030;PMS7003;6582;54.644;9.760;2022-11-15T06:10:07;160.9;152.8;
13030;PMS7003;6582;54.644;9.760;2022-11-15T06:15:02;163.8;156.7;
13030;PMS7003;6582;54.644;9.760;2022-11-15T06:45:01;153.6;149.6;
13030;PMS7003;6582;54.644;9.760;2022-11-15T06:50:01;153.4;148.9;
13030;PMS7003;6582;54.644;9.760;2022-11-15T06:55:01;157.7;152.7;
13030;PMS7003;6582;54.644;9.760;2022-11-15T07:00:04;153.1;148.1;
13030;PMS7003;6582;54.644;9.760;2022-11-15T07:05:06;147.1;142.1;
13030;PMS7003;6582;54.644;9.760;2022-11-15T07:10:02;140.1;135.0;
13030;PMS7003;6582;54.644;9.760;2022-11-15T07:15:02;132.3;128.2;
13030;PMS7003;6582;54.644;9.760;2022-11-15T07:20:02;120.2;116.2;
13030;PMS7003;6582;54.644;9.760;2022-11-15T07:25:02;114.0;109.8;
13030;PMS7003;6582;54.644;9.760;2022-11-15T07:30:02;110.3;106.9;
13030;PMS7003;6582;54.644;9.760;2022-11-15T07:35:01;109.9;107.2;
13030;PMS7003;6582;54.644;9.760;2022-11-15T07:40:01;116.9;113.2;
13030;PMS7003;6582;54.644;9.760;2022-11-15T07:45:07;117.8;115.1;
13030;PMS7003;6582;54.644;9.760;2022-11-15T07:50:01;118.3;116.4;
13030;PMS7003;6582;54.644;9.760;2022-11-15T07:55:03;121.8;119.1;
13030;PMS7003;6582;54.644;9.760;2022-11-15T08:00:02;121.1;118.1;
13030;PMS7003;6582;54.644;9.760;2022-11-15T08:05:02;115.6;113.4;
13030;PMS7003;6582;54.644;9.760;2022-11-15T08:10:02;117.2;115.0;
13030;PMS7003;6582;54.644;9.760;2022-11-15T08:15:02;120.9;119.1;
13030;PMS7003;6582;54.644;9.760;2022-11-15T08:20:02;119.6;118.7;
13030;PMS7003;6582;54.644;9.760;2022-11-15T08:25:02;121.8;120.7;
13030;PMS7003;6582;54.644;9.760;2022-11-15T08:30:02;117.2;115.3;
13030;PMS7003;6582;54.644;9.760;2022-11-15T08:35:02;113.4;110.6;
13030;PMS7003;6582;54.644;9.760;2022-11-15T08:40:02;107.2;103.1;
13030;PMS7003;6582;54.644;9.760;2022-11-15T08:45:02;103.3;98.1;
13030;PMS7003;6582;54.644;9.760;2022-11-15T08:50:02;102.5;97.4;
13030;PMS7003;6582;54.644;9.760;2022-11-15T08:55:02;101.6;96.5;
13030;PMS7003;6582;54.644;9.760;2022-11-15T09:00:02;101.6;96.3;
13030;PMS7003;6582;54.644;9.760;2022-11-15T09:05:02;100.9;95.7;
13030;PMS7003;6582;54.644;9.760;2022-11-15T09:10:02;101.2;95.6;
13030;PMS7003;6582;54.644;9.760;2022-11-15T09:15:02;97.1;90.8;
13030;PMS7003;6582;54.644;9.760;2022-11-15T09:20:07;97.5;90.7;
13030;PMS7003;6582;54.644;9.760;2022-11-15T09:25:02;97.2;90.1;
13030;PMS7003;6582;54.644;9.760;2022-11-15T09:30:02;97.2;89.9;
13030;PMS7003;6582;54.644;9.760;2022-11-15T09:35:02;106.4;100.2;
13030;PMS7003;6582;54.644;9.760;2022-11-15T09:40:02;105.1;98.4;
13030;PMS7003;6582;54.644;9.760;2022-11-15T09:45:11;104.1;97.2;
13030;PMS7003;6582;54.644;9.760;2022-11-15T09:50:08;103.4;96.7;
13030;PMS7003;6582;54.644;9.760;2022-11-15T09:55:02;102.0;94.6;
13030;PMS7003;6582;54.644;9.760;2022-11-15T10:00:19;91.8;83.0;
13030;PMS7003;6582;54.644;9.760;2022-11-15T10:05:02;91.5;82.7;
13030;PMS7003;6582;54.644;9.760;2022-11-15T10:10:04;91.2;82.5;
13030;PMS7003;6582;54.644;9.760;2022-11-15T10:15:04;90.5;81.6;
13030;PMS7003;6582;54.644;9.760;2022-11-15T10:35:15;94.2;87.0;
13030;PMS7003;6582;54.644;9.760;2022-11-15T10:40:03;94.5;86.5;
13030;PMS7003;6582;54.644;9.760;2022-11-15T10:45:02;92.1;83.0;
13030;PMS7003;6582;54.644;9.760;2022-11-15T10:50:06;92.2;83.1;
13030;PMS7003;6582;54.644;9.760;2022-11-15T10:55:03;91.5;81.9;
13030;PMS7003;6582;54.644;9.760;2022-11-15T11:00:07;90.4;80.1;
13030;PMS7003;6582;54.644;9.760;2022-11-15T11:15:05;87.2;76.4;
13030;PMS7003;6582;54.644;9.760;2022-11-15T11:20:07;85.9;74.4;
13030;PMS7003;6582;54.644;9.760;2022-11-15T12:05:08;88.2;76.8;
13030;PMS7003;6582;54.644;9.760;2022-11-15T12:10:04;88.8;77.1;
13030;PMS7003;6582;54.644;9.760;2022-11-15T12:35:02;87.2;79.0;
13030;PMS7003;6582;54.644;9.760;2022-11-15T12:55:06;90.4;76.8;
13030;PMS7003;6582;54.644;9.760;2022-11-15T13:15:30;87.8;77.6;
13030;PMS7003;6582;54.644;9.760;2022-11-15T13:35:01;85.8;73.8;
13030;PMS7003;6582;54.644;9.760;2022-11-15T13:40:22;86.8;75.0;
13030;PMS7003;6582;54.644;9.760;2022-11-15T13:55:05;86.6;77.0;
13030;PMS7003;6582;54.644;9.760;2022-11-15T14:00:03;88.4;78.8;
13030;PMS7003;6582;54.644;9.760;2022-11-15T14:05:05;88.5;78.7;
13030;PMS7003;6582;54.644;9.760;2022-11-15T14:10:24;88.6;78.6;
13030;PMS7003;6582;54.644;9.760;2022-11-15T14:45:02;81.0;67.6;
13030;PMS7003;6582;54.644;9.760;2022-11-15T14:50:02;82.9;69.8;
13030;PMS7003;6582;54.644;9.760;2022-11-15T14:55:03;87.7;76.8;
13030;PMS7003;6582;54.644;9.760;2022-11-15T15:00:01;86.2;74.8;
13030;PMS7003;6582;54.644;9.760;2022-11-15T15:25:02;83.8;71.6;
13030;PMS7003;6582;54.644;9.760;2022-11-15T15:30:02;82.6;70.2;
13030;PMS7003;6582;54.644;9.760;2022-11-15T15:35:07;81.9;69.1;
13030;PMS7003;6582;54.644;9.760;2022-11-15T15:40:03;87.6;75.9;
13030;PMS7003;6582;54.644;9.760;2022-11-15T15:45:02;86.6;74.5;
13030;PMS7003;6582;54.644;9.760;2022-11-15T15:50:02;86.5;74.4;
13030;PMS7003;6582;54.644;9.760;2022-11-15T15:55:02;87.8;75.6;
13030;PMS7003;6582;54.644;9.760;2022-11-15T16:00:03;89.3;77.6;
13030;PMS7003;6582;54.644;9.760;2022-11-15T16:05:02;86.2;73.2;
13030;PMS7003;6582;54.644;9.760;2022-11-15T16:10:09;86.1;73.4;
13030;PMS7003;6582;54.644;9.760;2022-11-15T16:15:02;85.7;73.2;
13030;PMS7003;6582;54.644;9.760;2022-11-15T16:20:08;85.5;73.2;
13030;PMS7003;6582;54.644;9.760;2022-11-15T16:25:07;84.8;71.5;
13030;PMS7003;6582;54.644;9.760;2022-11-15T16:30:09;84.0;71.6;
13030;PMS7003;6582;54.644;9.760;2022-11-15T16:35:02;84.8;72.8;
13030;PMS7003;6582;54.644;9.760;2022-11-15T16:40:02;85.8;73.9;
13030;PMS7003;6582;54.644;9.760;2022-11-15T16:45:02;85.9;73.7;
13030;PMS7003;6582;54.644;9.760;2022-11-15T16:50:02;85.7;73.9;
13030;PMS7003;6582;54.644;9.760;2022-11-15T16:55:02;87.0;75.4;
13030;PMS7003;6582;54.644;9.760;2022-11-15T17:00:02;87.6;75.8;
13030;PMS7003;6582;54.644;9.760;2022-11-15T17:05:20;88.0;75.5;
13030;PMS7003;6582;54.644;9.760;2022-11-15T17:10:01;88.3;76.2;
13030;PMS7003;6582;54.644;9.760;2022-11-15T17:15:02;89.1;77.4;
13030;PMS7003;6582;54.644;9.760;2022-11-15T17:20:02;87.6;75.0;
13030;PMS7003;6582;54.644;9.760;2022-11-15T17:25:02;86.8;74.0;
13030;PMS7003;6582;54.644;9.760;2022-11-15T17:30:02;85.7;73.4;
13030;PMS7003;6582;54.644;9.760;2022-11-15T17:35:02;87.3;75.3;
13030;PMS7003;6582;54.644;9.760;2022-11-15T17:40:02;87.2;74.6;
13030;PMS7003;6582;54.644;9.760;2022-11-15T17:45:10;87.2;74.9;
13030;PMS7003;6582;54.644;9.760;2022-11-15T17:50:11;88.5;76.7;
13030;PMS7003;6582;54.644;9.760;2022-11-15T17:55:07;89.4;77.5;
13030;PMS7003;6582;54.644;9.760;2022-11-15T18:00:02;87.4;74.6;
13030;PMS7003;6582;54.644;9.760;2022-11-15T18:05:02;87.2;75.2;
13030;PMS7003;6582;54.644;9.760;2022-11-15T18:10:07;88.1;76.2;
13030;PMS7003;6582;54.644;9.760;2022-11-15T18:15:04;88.3;76.5;
13030;PMS7003;6582;54.644;9.760;2022-11-15T18:20:07;91.3;81.4;
13030;PMS7003;6582;54.644;9.760;2022-11-15T18:25:02;91.9;83.3;
13030;PMS7003;6582;54.644;9.760;2022-11-15T18:30:02;91.8;83.3;
13030;PMS7003;6582;54.644;9.760;2022-11-15T18:35:02;91.4;83.0;
13030;PMS7003;6582;54.644;9.760;2022-11-15T18:40:12;90.2;81.2;
13030;PMS7003;6582;54.644;9.760;2022-11-15T18:45:02;86.4;75.6;
13030;PMS7003;6582;54.644;9.760;2022-11-15T18:50:01;85.0;72.8;
13030;PMS7003;6582;54.644;9.760;2022-11-15T19:00:02;84.6;72.4;
13030;PMS7003;6582;54.644;9.760;2022-11-15T19:05:02;85.4;73.4;
13030;PMS7003;6582;54.644;9.760;2022-11-15T19:10:02;86.3;74.4;
13030;PMS7003;6582;54.644;9.760;2022-11-15T19:15:10;87.3;76.2;
13030;PMS7003;6582;54.644;9.760;2022-11-15T19:20:07;87.6;75.4;
13030;PMS7003;6582;54.644;9.760;2022-11-15T19:25:02;88.4;76.6;
13030;PMS7003;6582;54.644;9.760;2022-11-15T19:30:03;87.8;75.8;
13030;PMS7003;6582;54.644;9.760;2022-11-15T19:35:03;88.4;76.2;
13030;PMS7003;6582;54.644;9.760;2022-11-15T19:45:02;89.0;77.9;
13030;PMS7003;6582;54.644;9.760;2022-11-15T19:50:02;89.7;79.2;
13030;PMS7003;6582;54.644;9.760;2022-11-15T19:55:02;91.7;82.0;
13030;PMS7003;6582;54.644;9.760;2022-11-15T20:00:08;93.0;83.8;
13030;PMS7003;6582;54.644;9.760;2022-11-15T20:05:02;92.2;82.4;
13030;PMS7003;6582;54.644;9.760;2022-11-15T20:10:03;92.4;82.8;
13030;PMS7003;6582;54.644;9.760;2022-11-15T20:15:04;94.2;85.2;
13030;PMS7003;6582;54.644;9.760;2022-11-15T20:20:02;92.4;82.5;
13030;PMS7003;6582;54.644;9.760;2022-11-15T20:25:02;91.4;80.9;
13030;PMS7003;6582;54.644;9.760;2022-11-15T20:30:02;93.4;83.7;
13030;PMS7003;6582;54.644;9.760;2022-11-15T20:40:02;91.9;81.4;
13030;PMS7003;6582;54.644;9.760;2022-11-15T20:45:02;92.7;82.4;
13030;PMS7003;6582;54.644;9.760;2022-11-15T20:50:16;92.8;83.0;
13030;PMS7003;6582;54.644;9.760;2022-11-15T20:55:01;92.9;83.0;
13030;PMS7003;6582;54.644;9.760;2022-11-15T21:00:06;97.4;88.7;
13030;PMS7003;6582;54.644;9.760;2022-11-15T21:05:05;98.4;89.7;
13030;PMS7003;6582;54.644;9.760;2022-11-15T21:10:03;97.6;88.7;
13030;PMS7003;6582;54.644;9.760;2022-11-15T21:15:02;97.0;87.5;
13030;PMS7003;6582;54.644;9.760;2022-11-15T21:20:02;96.2;86.7;
13030;PMS7003;6582;54.644;9.760;2022-11-15T21:25:02;91.6;81.1;
13030;PMS7003;6582;54.644;9.760;2022-11-15T21:30:02;90.5;79.4;
13030;PMS7003;6582;54.644;9.760;2022-11-15T21:35:02;91.2;80.8;
13030;PMS7003;6582;54.644;9.760;2022-11-15T21:40:02;90.9;80.8;
13030;PMS7003;6582;54.644;9.760;2022-11-15T21:45:07;98.8;90.3;
13030;PMS7003;6582;54.644;9.760;2022-11-15T21:50:02;98.7;89.9;
13030;PMS7003;6582;54.644;9.760;2022-11-15T21:55:02;99.2;91.1;
13030;PMS7003;6582;54.644;9.760;2022-11-15T22:00:02;99.4;91.5;
13030;PMS7003;6582;54.644;9.760;2022-11-15T22:05:02;100.3;92.3;
13030;PMS7003;6582;54.644;9.760;2022-11-15T22:10:02;92.8;83.5;
13030;PMS7003;6582;54.644;9.760;2022-11-15T22:15:01;93.9;85.3;
13030;PMS7003;6582;54.644;9.760;2022-11-15T22:20:16;94.5;86.4;
13030;PMS7003;6582;54.644;9.760;2022-11-15T22:25:02;95.2;86.9;
13030;PMS7003;6582;54.644;9.760;2022-11-15T22:30:03;96.7;88.8;
13030;PMS7003;6582;54.644;9.760;2022-11-15T22:35:01;96.5;88.0;
13030;PMS7003;6582;54.644;9.760;2022-11-15T22:40:02;95.3;85.3;
13030;PMS7003;6582;54.644;9.760;2022-11-15T22:45:02;93.4;81.5;
13030;PMS7003;6582;54.644;9.760;2022-11-15T22:50:01;92.5;80.4;
13030;PMS7003;6582;54.644;9.760;2022-11-15T22:55:02;94.9;83.7;
13030;PMS7003;6582;54.644;9.760;2022-11-15T23:00:02;95.1;84.3;
13030;PMS7003;6582;54.644;9.760;2022-11-15T23:05:02;96.0;86.3;
13030;PMS7003;6582;54.644;9.760;2022-11-15T23:10:02;96.8;88.0;
13030;PMS7003;6582;54.644;9.760;2022-11-15T23:15:02;96.7;87.8;
13030;PMS7003;6582;54.644;9.760;2022-11-15T23:20:16;93.5;84.1;
13030;PMS7003;6582;54.644;9.760;2022-11-15T23:25:02;94.6;85.6;
13030;PMS7003;6582;54.644;9.760;2022-11-15T23:30:01;94.7;86.4;
13030;PMS7003;6582;54.644;9.760;2022-11-15T23:35:01;96.0;88.7;
13030;PMS7003;6582;54.644;9.760;2022-11-15T23:40:02;100.4;95.0;
13030;PMS7003;6582;54.644;9.760;2022-11-15T23:45:07;101.9;96.6;
13030;PMS7003;6582;54.644;9.760;2022-11-15T23:50:02;103.0;98.6;
13030;PMS7003;6582;54.644;9.760;2022-11-15T23:55:02;104.6;100.0;
